Time;durP1;ratioP1;P1;durP2;ratioP2;P2;SDS_P1;SDS_P2;PMS_P1;PMS_P2;Temp;Humidity;BMP_temperature;BMP_pressure;BME280_temperature;BME280_humidity;BME280_pressure;Samples;Min_cycle;Max_cycle;Signal;HPM_P1;HPM_P2
2024/03/12 00:00:45;;;;;;;4.20;2.38;;;7.60;91.40;;;;;;5114739;28;20046;-74
2024/03/12 00:03:11;;;;;;;4.72;2.40;;;7.80;91.40;;;;;;5073007;28;20044;-74
2024/03/12 00:05:37;;;;;;;3.75;2.08;;;7.70;91.40;;;;;;5090091;28;20042;-76
2024/03/12 00:08:04;;;;;;;4.13;2.20;;;7.60;91.40;;;;;;5072996;28;20044;-74
2024/03/12 00:10:29;;;;;;;4.07;2.08;;;7.60;91.40;;;;;;5056615;28;20047;-74
2024/03/12 00:12:56;;;;;;;4.22;2.20;;;7.70;91.50;;;;;;5073351;28;20380;-74
2024/03/12 00:15:24;;;;;;;4.40;2.00;;;7.70;91.50;;;;;;5090508;28;20071;-74
2024/03/12 00:17:51;;;;;;;6.38;3.17;;;7.70;91.50;;;;;;5056287;28;20044;-73
2024/03/12 00:20:18;;;;;;;5.15;2.70;;;7.80;91.50;;;;;;5072942;28;20097;-74
2024/03/12 00:22:47;;;;;;;8.60;3.80;;;7.70;91.50;;;;;;5039776;28;20040;-74
2024/03/12 00:25:15;;;;;;;7.03;3.10;;;7.70;91.50;;;;;;5056511;28;20403;-74
2024/03/12 00:27:44;;;;;;;4.85;2.60;;;7.70;91.50;;;;;;5056276;28;20110;-74
2024/03/12 00:30:10;;;;;;;4.65;2.55;;;7.70;91.50;;;;;;5072771;28;20125;-74
2024/03/12 00:32:38;;;;;;;5.43;2.47;;;7.70;91.50;;;;;;5056352;28;20043;-74
2024/03/12 00:35:05;;;;;;;3.65;2.15;;;7.70;91.50;;;;;;5092148;28;20499;-74
2024/03/12 00:37:33;;;;;;;5.45;2.60;;;7.80;91.50;;;;;;5080516;28;20055;-74
2024/03/12 00:39:59;;;;;;;5.57;2.60;;;7.70;91.50;;;;;;5097391;28;20611;-74
2024/03/12 00:42:26;;;;;;;5.50;3.00;;;7.70;91.50;;;;;;5080220;27;20035;-74
2024/03/12 00:44:52;;;;;;;6.50;2.92;;;7.70;91.50;;;;;;5098018;28;20050;-74
2024/03/12 00:47:21;;;;;;;4.72;2.45;;;7.70;91.50;;;;;;5080290;27;20035;-74
2024/03/12 00:49:50;;;;;;;7.70;3.35;;;7.60;91.40;;;;;;5117914;28;20061;-74
2024/03/12 00:52:23;;;;;;;6.53;3.22;;;7.80;91.50;;;;;;5099828;28;20031;-74
2024/03/12 00:54:50;;;;;;;7.53;3.67;;;7.70;91.50;;;;;;5039262;28;20044;-74
2024/03/12 00:57:16;;;;;;;6.93;3.38;;;7.80;91.50;;;;;;5056140;28;20040;-74
2024/03/12 00:59:42;;;;;;;8.35;4.00;;;7.70;91.50;;;;;;5039301;28;20045;-74
2024/03/12 01:02:12;;;;;;;6.82;3.30;;;7.70;91.50;;;;;;5039331;28;20227;-74
2024/03/12 01:04:39;;;;;;;9.48;3.92;;;7.80;91.50;;;;;;5072374;28;20482;-74
2024/03/12 01:07:07;;;;;;;9.00;4.45;;;7.80;91.50;;;;;;5038836;28;20184;-74
2024/03/12 01:09:39;;;;;;;10.13;4.25;;;7.80;91.50;;;;;;5039464;28;20043;-74
2024/03/12 01:12:09;;;;;;;9.35;4.30;;;7.80;91.50;;;;;;5039777;28;20102;-74
2024/03/12 01:14:37;;;;;;;9.23;4.50;;;7.70;91.50;;;;;;5039012;28;20039;-74
2024/03/12 01:17:06;;;;;;;7.10;3.58;;;7.80;91.50;;;;;;5015471;28;20493;-74
2024/03/12 01:19:44;;;;;;;9.80;4.57;;;7.70;91.50;;;;;;5016104;28;20053;-73
2024/03/12 01:22:12;;;;;;;9.07;4.60;;;7.70;91.50;;;;;;5017197;28;20045;-74
2024/03/12 01:24:42;;;;;;;10.60;5.20;;;7.70;91.50;;;;;;5002943;28;20041;-73
2024/03/12 01:27:10;;;;;;;12.10;5.10;;;7.70;91.50;;;;;;5076472;28;20047;-74
2024/03/12 01:29:37;;;;;;;10.00;4.82;;;7.70;91.50;;;;;;5092723;28;20044;-74
2024/03/12 01:32:06;;;;;;;11.30;5.78;;;7.60;91.50;;;;;;5075657;28;20509;-74
2024/03/12 01:34:33;;;;;;;10.48;5.60;;;7.70;91.60;;;;;;5057728;28;20043;-73
2024/03/12 01:37:00;;;;;;;11.38;5.80;;;7.70;91.70;;;;;;5062752;28;20060;-74
2024/03/12 01:39:26;;;;;;;11.35;5.13;;;7.60;91.60;;;;;;5046782;28;20098;-74
2024/03/12 01:41:53;;;;;;;9.10;4.32;;;7.60;91.60;;;;;;5075395;28;20040;-74
2024/03/12 01:44:19;;;;;;;9.10;4.40;;;7.60;91.60;;;;;;5075517;28;20139;-74
2024/03/12 01:46:45;;;;;;;13.60;5.65;;;7.60;91.60;;;;;;5071460;28;20182;-73
2024/03/12 01:49:13;;;;;;;9.20;4.65;;;7.70;91.60;;;;;;5115975;28;20044;-74
2024/03/12 01:51:39;;;;;;;10.25;4.60;;;7.70;91.60;;;;;;5099848;28;20104;-74
2024/03/12 01:54:05;;;;;;;8.00;4.45;;;7.60;91.90;;;;;;5117157;28;20046;-74
2024/03/12 01:56:31;;;;;;;11.77;4.57;;;7.60;91.60;;;;;;5116525;27;20130;-74
2024/03/12 01:58:58;;;;;;;11.60;4.68;;;7.60;91.60;;;;;;5116554;28;20466;-74
2024/03/12 02:01:25;;;;;;;10.43;5.45;;;7.60;91.70;;;;;;5082696;28;20138;-74
2024/03/12 02:03:51;;;;;;;10.70;4.95;;;7.60;91.70;;;;;;5099540;27;20448;-74
2024/03/12 02:06:19;;;;;;;11.23;5.65;;;7.60;91.70;;;;;;5116541;28;20051;-73
2024/03/12 02:08:47;;;;;;;11.35;4.80;;;7.60;91.70;;;;;;5116456;28;20050;-73
2024/03/12 02:11:13;;;;;;;11.13;4.97;;;7.60;91.70;;;;;;5099619;28;20406;-73
2024/03/12 02:13:40;;;;;;;10.85;5.38;;;7.60;91.70;;;;;;5099690;27;20043;-74
2024/03/12 02:16:06;;;;;;;10.80;4.63;;;7.50;91.70;;;;;;5135251;27;20043;-73
2024/03/12 02:18:39;;;;;;;10.77;5.18;;;7.60;91.70;;;;;;5135228;27;20042;-73
2024/03/12 02:21:08;;;;;;;9.48;4.68;;;7.60;91.70;;;;;;5099732;28;20066;-74
2024/03/12 02:23:43;;;;;;;10.38;4.63;;;7.50;91.70;;;;;;5099843;28;20105;-73
2024/03/12 02:26:10;;;;;;;6.55;3.40;;;7.60;91.70;;;;;;5099042;27;20031;-73
2024/03/12 02:28:39;;;;;;;9.98;4.22;;;7.60;91.70;;;;;;5114859;27;20074;-74
2024/03/12 02:31:06;;;;;;;9.43;3.45;;;7.60;91.70;;;;;;5080548;28;20035;-74
2024/03/12 02:33:32;;;;;;;7.07;3.45;;;7.60;91.70;;;;;;5099371;27;20039;-74
2024/03/12 02:35:58;;;;;;;7.22;3.20;;;7.70;91.80;;;;;;5099038;28;20045;-74
2024/03/12 02:38:26;;;;;;;5.65;2.70;;;7.60;91.70;;;;;;5098869;28;20035;-74
2024/03/12 02:40:52;;;;;;;7.38;3.30;;;7.60;91.70;;;;;;5116415;28;20047;-73
2024/03/12 02:43:18;;;;;;;7.18;3.53;;;7.60;91.70;;;;;;5134713;27;20043;-74
2024/03/12 02:45:45;;;;;;;7.95;3.75;;;7.60;91.70;;;;;;5116289;27;20046;-74
2024/03/12 02:48:12;;;;;;;7.18;3.25;;;7.60;91.70;;;;;;5098909;28;20136;-74
2024/03/12 02:50:39;;;;;;;8.57;4.28;;;7.60;91.70;;;;;;5082017;28;20119;-74
2024/03/12 02:53:06;;;;;;;9.20;4.38;;;7.60;91.70;;;;;;5115505;28;20130;-73
2024/03/12 02:55:33;;;;;;;9.68;4.28;;;7.60;91.70;;;;;;5115555;28;20050;-74
2024/03/12 02:57:59;;;;;;;10.15;4.35;;;7.80;91.80;;;;;;5116028;28;20064;-73
2024/03/12 03:00:25;;;;;;;10.57;4.60;;;7.60;91.70;;;;;;5098740;28;20039;-73
2024/03/12 03:02:54;;;;;;;7.80;3.88;;;7.50;91.70;;;;;;5081709;27;20444;-73
2024/03/12 03:05:23;;;;;;;9.73;4.63;;;7.60;91.70;;;;;;5082453;28;20043;-74
2024/03/12 03:07:49;;;;;;;7.35;3.63;;;7.70;91.70;;;;;;5057025;28;20075;-74
2024/03/12 03:10:15;;;;;;;7.50;3.92;;;7.70;91.70;;;;;;5056588;28;20040;-74
2024/03/12 03:12:42;;;;;;;11.07;4.75;;;7.60;91.70;;;;;;5056933;28;20460;-74
2024/03/12 03:15:12;;;;;;;6.85;3.45;;;7.70;91.70;;;;;;5057039;28;20032;-73
2024/03/12 03:17:40;;;;;;;8.07;4.35;;;7.70;91.70;;;;;;5054071;28;20387;-74
2024/03/12 03:20:08;;;;;;;6.38;3.13;;;7.70;91.70;;;;;;5053616;28;20072;-74
2024/03/12 03:22:35;;;;;;;7.22;3.38;;;7.60;91.70;;;;;;5070154;28;20037;-74
2024/03/12 03:25:00;;;;;;;7.65;3.53;;;7.70;91.70;;;;;;5053545;28;20094;-74
2024/03/12 03:27:26;;;;;;;7.25;3.70;;;7.80;91.80;;;;;;5053596;28;20044;-74
2024/03/12 03:29:56;;;;;;;9.57;4.60;;;7.60;92.00;;;;;;5070187;28;20068;-74
2024/03/12 03:32:28;;;;;;;7.60;4.10;;;7.60;91.70;;;;;;5070390;28;20036;-74
2024/03/12 03:34:54;;;;;;;7.25;3.60;;;7.60;91.70;;;;;;5070409;28;20070;-74
2024/03/12 03:37:20;;;;;;;8.25;4.15;;;7.70;91.80;;;;;;5053141;28;20032;-74
2024/03/12 03:39:47;;;;;;;8.55;4.15;;;7.70;91.80;;;;;;5071974;28;20036;-74
2024/03/12 03:42:13;;;;;;;7.68;3.67;;;7.70;91.80;;;;;;5056566;28;20052;-73
2024/03/12 03:44:39;;;;;;;8.07;3.70;;;7.70;91.80;;;;;;5056620;28;20139;-74
2024/03/12 03:47:04;;;;;;;8.55;4.32;;;7.70;91.80;;;;;;5049197;28;20127;-74
2024/03/12 03:49:30;;;;;;;8.68;3.70;;;7.70;91.80;;;;;;5092725;28;20051;-74
2024/03/12 03:51:56;;;;;;;7.82;4.22;;;7.70;91.80;;;;;;5097741;27;20027;-74
2024/03/12 03:54:22;;;;;;;7.15;3.63;;;7.70;91.80;;;;;;5096836;27;20073;-74
2024/03/12 03:56:48;;;;;;;7.05;3.72;;;7.60;91.80;;;;;;5133648;27;20351;-73
2024/03/12 03:59:16;;;;;;;7.15;3.47;;;7.70;91.80;;;;;;5097789;28;20188;-73
2024/03/12 04:01:42;;;;;;;7.88;3.83;;;7.70;91.80;;;;;;5114994;28;20058;-73
2024/03/12 04:04:11;;;;;;;7.13;3.50;;;7.70;91.80;;;;;;5133612;27;20047;-73
2024/03/12 04:06:37;;;;;;;7.43;3.33;;;7.70;91.80;;;;;;5096726;28;20047;-73
2024/03/12 04:09:04;;;;;;;5.78;3.17;;;7.70;91.90;;;;;;5133458;28;20047;-73
2024/03/12 04:11:34;;;;;;;5.07;2.50;;;7.70;91.90;;;;;;5114570;27;20040;-74
2024/03/12 04:14:00;;;;;;;6.38;3.47;;;7.70;91.90;;;;;;5115083;28;21367;-73
2024/03/12 04:16:26;;;;;;;6.43;3.40;;;7.70;91.90;;;;;;5097511;28;20106;-73
2024/03/12 04:18:59;;;;;;;7.60;3.88;;;7.70;91.90;;;;;;5097367;28;20039;-73
2024/03/12 04:21:26;;;;;;;6.35;3.28;;;7.70;91.90;;;;;;5095916;28;20043;-73
2024/03/12 04:23:52;;;;;;;6.90;3.17;;;7.70;91.90;;;;;;5099652;28;20050;-73
2024/03/12 04:26:19;;;;;;;8.13;4.10;;;7.70;91.90;;;;;;5118541;27;20043;-73
2024/03/12 04:28:45;;;;;;;8.70;4.80;;;7.60;91.90;;;;;;5118748;27;20092;-73
2024/03/12 04:31:11;;;;;;;7.53;4.05;;;7.60;91.90;;;;;;5100983;28;20080;-73
2024/03/12 04:33:38;;;;;;;7.15;3.75;;;7.60;91.90;;;;;;5118161;28;20073;-73
2024/03/12 04:36:06;;;;;;;5.88;3.15;;;7.60;91.90;;;;;;5136160;27;20062;-73
2024/03/12 04:38:32;;;;;;;7.47;3.70;;;7.60;91.90;;;;;;5101398;28;20039;-73
2024/03/12 04:40:59;;;;;;;7.68;3.80;;;7.60;91.90;;;;;;5100883;27;20043;-73
2024/03/12 04:43:25;;;;;;;8.10;3.80;;;7.60;91.90;;;;;;5117732;28;20092;-73
2024/03/12 04:45:54;;;;;;;6.85;3.33;;;7.60;91.90;;;;;;5100896;28;20039;-74
2024/03/12 04:48:21;;;;;;;6.75;3.38;;;7.60;91.90;;;;;;5118026;27;20035;-74
2024/03/12 04:50:47;;;;;;;6.22;3.33;;;7.60;92.00;;;;;;5076623;28;20028;-73
2024/03/12 04:53:13;;;;;;;5.80;3.20;;;7.60;92.00;;;;;;5075997;28;20055;-74
2024/03/12 04:55:39;;;;;;;6.70;3.50;;;7.50;91.90;;;;;;5055103;28;20396;-73
2024/03/12 04:58:05;;;;;;;6.90;3.05;;;7.60;92.00;;;;;;5075873;28;20051;-73
2024/03/12 05:00:31;;;;;;;6.65;3.80;;;7.60;92.00;;;;;;5075805;28;20048;-73
2024/03/12 05:02:57;;;;;;;6.25;3.47;;;7.50;92.00;;;;;;5075870;28;20044;-73
2024/03/12 05:05:25;;;;;;;7.20;3.20;;;7.60;92.00;;;;;;5052322;28;20515;-74
2024/03/12 05:07:52;;;;;;;6.88;3.60;;;7.50;92.00;;;;;;5019946;28;20051;-74
2024/03/12 05:10:20;;;;;;;6.85;3.58;;;7.60;92.00;;;;;;5052312;28;20049;-73
2024/03/12 05:12:47;;;;;;;8.48;3.28;;;7.60;92.00;;;;;;4996168;28;20042;-73
2024/03/12 05:15:13;;;;;;;7.25;3.25;;;7.50;92.00;;;;;;4996297;28;20050;-73
2024/03/12 05:17:39;;;;;;;6.80;3.08;;;7.50;92.00;;;;;;4996195;28;20042;-73
2024/03/12 05:20:08;;;;;;;7.03;3.58;;;7.50;92.00;;;;;;4996174;28;20045;-73
2024/03/12 05:22:33;;;;;;;6.47;3.30;;;7.50;92.00;;;;;;5022615;28;20088;-74
2024/03/12 05:25:01;;;;;;;6.72;3.22;;;7.50;92.00;;;;;;5005904;28;20486;-74
2024/03/12 05:27:35;;;;;;;6.30;3.20;;;7.40;92.00;;;;;;5000027;28;20037;-74
2024/03/12 05:30:10;;;;;;;7.88;3.70;;;7.60;92.00;;;;;;5000245;28;20393;-74
2024/03/12 05:32:41;;;;;;;6.15;3.05;;;7.50;92.00;;;;;;5032766;28;20416;-74
2024/03/12 05:35:17;;;;;;;6.18;3.22;;;7.50;92.00;;;;;;4999096;28;20152;-74
2024/03/12 05:40:29;;;;;;;9.00;3.22;;;7.50;92.00;;;;;;5061914;28;20040;-74
2024/03/12 05:48:12;;;;;;;6.80;3.60;;;7.50;92.00;;;;;;5135055;27;20487;-73
2024/03/12 05:50:41;;;;;;;6.68;3.42;;;7.40;92.00;;;;;;5116562;27;20130;-73
2024/03/12 05:53:08;;;;;;;8.15;3.80;;;7.50;92.00;;;;;;5116938;27;20088;-74
2024/03/12 05:55:34;;;;;;;9.75;3.53;;;7.50;92.00;;;;;;5116674;28;20486;-74
2024/03/12 05:58:04;;;;;;;7.88;3.65;;;7.70;92.10;;;;;;5099676;28;20039;-73
2024/03/12 06:00:32;;;;;;;9.15;4.28;;;7.40;92.00;;;;;;5117123;28;20382;-73
2024/03/12 06:02:58;;;;;;;8.98;4.03;;;7.40;92.00;;;;;;5099057;28;20049;-73
2024/03/12 06:05:24;;;;;;;7.47;3.72;;;7.50;92.00;;;;;;5116681;28;20059;-73
2024/03/12 06:07:53;;;;;;;9.40;3.58;;;7.40;92.00;;;;;;5099497;27;20461;-73
2024/03/12 06:10:19;;;;;;;7.55;3.55;;;7.50;92.10;;;;;;5099920;28;20096;-73
2024/03/12 06:12:45;;;;;;;11.25;4.00;;;7.50;92.10;;;;;;5099585;28;20428;-73
2024/03/12 06:15:11;;;;;;;8.35;3.28;;;7.40;92.00;;;;;;5082542;28;20551;-73
2024/03/12 06:17:37;;;;;;;8.18;3.70;;;7.40;92.10;;;;;;5116301;28;20066;-73
2024/03/12 06:20:05;;;;;;;8.20;3.53;;;7.40;92.10;;;;;;5116099;28;20035;-72
2024/03/12 06:22:32;;;;;;;8.57;4.07;;;7.40;92.10;;;;;;5099433;28;20043;-73
2024/03/12 06:24:58;;;;;;;8.07;4.10;;;7.40;92.10;;;;;;5116190;27;20047;-74
2024/03/12 06:27:24;;;;;;;8.68;4.00;;;7.50;92.10;;;;;;5099395;27;20039;-74
2024/03/12 06:29:51;;;;;;;10.68;4.60;;;7.40;92.10;;;;;;5099146;28;20095;-74
2024/03/12 06:32:20;;;;;;;9.82;4.00;;;7.40;92.10;;;;;;5116022;27;20043;-73
2024/03/12 06:34:47;;;;;;;7.82;3.70;;;7.40;92.10;;;;;;5116848;28;20066;-73
2024/03/12 06:37:13;;;;;;;7.00;3.38;;;7.50;92.10;;;;;;5099017;28;20036;-73
2024/03/12 06:39:41;;;;;;;9.38;3.92;;;7.40;92.10;;;;;;5116428;27;20050;-74
2024/03/12 06:42:19;;;;;;;9.65;3.92;;;7.40;92.10;;;;;;5082697;28;20038;-73
2024/03/12 06:44:48;;;;;;;9.90;3.72;;;7.40;92.10;;;;;;5101771;27;20065;-73
2024/03/12 06:47:14;;;;;;;7.90;3.70;;;7.30;92.10;;;;;;5115004;28;20130;-73
2024/03/12 06:49:44;;;;;;;7.15;3.60;;;7.40;92.10;;;;;;5115760;28;20039;-73
2024/03/12 06:52:14;;;;;;;8.35;4.05;;;7.40;92.10;;;;;;5099419;28;20065;-74
2024/03/12 06:54:40;;;;;;;9.60;3.70;;;7.30;92.10;;;;;;5116158;28;20084;-73
2024/03/12 06:57:07;;;;;;;7.90;3.90;;;7.40;92.10;;;;;;5115865;28;20039;-74
2024/03/12 06:59:43;;;;;;;7.35;3.33;;;7.40;92.10;;;;;;5115559;27;20075;-72
2024/03/12 07:02:09;;;;;;;8.73;3.63;;;7.40;92.10;;;;;;5100126;28;20035;-73
2024/03/12 07:04:43;;;;;;;10.15;3.85;;;7.30;92.00;;;;;;5053601;28;20052;-74
2024/03/12 07:07:10;;;;;;;7.32;3.85;;;7.40;92.10;;;;;;5054945;28;20098;-73
2024/03/12 07:09:40;;;;;;;7.93;3.33;;;7.40;92.00;;;;;;5070390;28;20063;-73
2024/03/12 07:12:08;;;;;;;7.03;3.15;;;7.40;92.00;;;;;;5038538;28;20040;-74
2024/03/12 07:14:43;;;;;;;9.02;3.30;;;7.40;92.00;;;;;;5037085;28;20087;-74
2024/03/12 07:17:10;;;;;;;7.35;3.50;;;7.50;92.10;;;;;;5038642;28;20042;-74
2024/03/12 07:19:38;;;;;;;6.28;3.08;;;7.40;92.00;;;;;;5053832;28;20050;-73
2024/03/12 07:22:07;;;;;;;10.23;3.38;;;7.50;92.00;;;;;;5053693;28;20407;-73
2024/03/12 07:24:35;;;;;;;10.00;3.65;;;7.50;92.00;;;;;;5037449;28;20040;-72
2024/03/12 07:27:03;;;;;;;6.72;3.08;;;7.50;92.00;;;;;;5037137;28;20098;-74
2024/03/12 07:32:35;;;;;;;7.05;3.28;;;7.50;92.00;;;;;;4966787;28;20053;-73
2024/03/12 07:35:41;;;;;;;7.75;3.53;;;7.60;92.00;;;;;;4990876;28;20095;-73
2024/03/12 07:38:07;;;;;;;8.07;3.33;;;7.50;92.00;;;;;;4968657;28;20501;-73
2024/03/12 07:40:34;;;;;;;6.93;3.38;;;7.50;92.00;;;;;;4955404;28;20042;-72
2024/03/12 07:46:44;;;;;;;8.15;3.55;;;7.60;92.00;;;;;;4894204;29;20037;-73
2024/03/12 07:49:11;;;;;;;7.07;3.30;;;7.60;92.00;;;;;;4839388;29;20510;-71
2024/03/12 07:51:42;;;;;;;7.80;3.72;;;7.50;91.90;;;;;;4824435;29;20058;-71
2024/03/12 07:54:31;;;;;;;5.43;2.65;;;7.50;91.90;;;;;;4824218;29;20053;-72
2024/03/12 07:57:07;;;;;;;6.63;2.78;;;7.50;92.00;;;;;;4839332;29;20050;-72
2024/03/12 07:59:39;;;;;;;6.85;3.17;;;7.50;92.00;;;;;;4823962;29;20073;-72
2024/03/12 08:02:46;;;;;;;;;;;7.60;92.00;;;;;;4843910;29;20048;-71
2024/03/12 08:05:14;;;;;;;7.55;3.17;;;7.50;92.00;;;;;;4913785;29;19915;-72
2024/03/12 08:07:44;;;;;;;8.25;2.80;;;7.50;91.90;;;;;;4938473;29;20126;-73
2024/03/12 08:10:26;;;;;;;5.57;2.72;;;7.50;91.90;;;;;;4962504;28;20069;-73
2024/03/12 08:12:51;;;;;;;6.90;2.97;;;7.50;92.00;;;;;;4932848;29;20039;-72
2024/03/12 08:15:26;;;;;;;6.43;2.75;;;7.50;92.00;;;;;;4916614;29;20377;-73
2024/03/12 08:18:24;;;;;;;3.55;2.05;;;7.50;92.00;;;;;;4932234;29;20072;-73
2024/03/12 08:21:02;;;;;;;5.60;3.00;;;7.50;92.00;;;;;;4946917;28;20502;-72
2024/03/12 08:23:27;;;;;;;9.10;3.35;;;7.60;92.00;;;;;;5016521;28;20033;-73
2024/03/12 08:25:58;;;;;;;6.65;3.05;;;7.60;92.00;;;;;;5016489;28;20124;-73
2024/03/12 08:28:52;;;;;;;6.18;2.80;;;7.60;92.00;;;;;;5033020;28;20076;-72
2024/03/12 08:31:33;;;;;;;6.28;3.17;;;7.60;92.00;;;;;;5036359;28;20086;-72
2024/03/12 08:36:55;;;;;;;5.03;2.42;;;7.60;91.90;;;;;;5032532;28;20135;-71
2024/03/12 08:39:22;;;;;;;6.47;3.10;;;7.60;91.90;;;;;;5032519;28;20048;-71
2024/03/12 08:44:49;;;;;;;8.35;3.20;;;7.60;91.90;;;;;;5048181;28;20047;-72
2024/03/12 08:47:27;;;;;;;6.07;3.20;;;7.70;91.90;;;;;;5037439;28;20051;-71
2024/03/12 08:49:56;;;;;;;7.32;3.20;;;7.80;91.90;;;;;;5036122;28;20051;-72
2024/03/12 08:52:29;;;;;;;8.77;3.05;;;7.70;91.90;;;;;;5052865;28;20048;-72
2024/03/12 08:54:59;;;;;;;7.13;3.08;;;7.80;91.90;;;;;;5067618;28;20044;-73
2024/03/12 08:57:25;;;;;;;6.85;3.00;;;7.80;91.90;;;;;;5036830;28;20040;-72
2024/03/12 09:00:25;;;;;;;7.25;3.20;;;7.80;91.90;;;;;;5052138;28;20037;-73
2024/03/12 09:03:58;;;;;;;6.20;3.05;;;7.80;91.80;;;;;;4991591;28;20164;-73
2024/03/12 09:06:44;;;;;;;8.07;3.50;;;7.80;91.80;;;;;;4996667;28;20041;-73
2024/03/12 09:12:31;;;;;;;6.32;3.38;;;8.00;91.90;;;;;;4884950;29;20124;-73
2024/03/12 09:15:23;;;;;;;5.47;2.55;;;7.90;91.80;;;;;;4935804;28;20070;-73
2024/03/12 09:17:48;;;;;;;5.63;2.53;;;7.90;91.80;;;;;;4956981;28;20251;-72
2024/03/12 09:20:15;;;;;;;6.82;3.35;;;7.90;91.80;;;;;;4973495;28;20119;-72
2024/03/12 09:22:44;;;;;;;5.28;2.55;;;7.90;91.80;;;;;;4973622;28;20046;-72
2024/03/12 09:25:10;;;;;;;4.35;2.40;;;7.80;91.80;;;;;;4973438;28;20077;-73
2024/03/12 09:27:39;;;;;;;5.18;2.60;;;7.90;91.90;;;;;;5006638;28;20046;-72
2024/03/12 09:30:07;;;;;;;7.35;2.90;;;7.80;91.90;;;;;;5015880;28;20045;-72
2024/03/12 09:32:34;;;;;;;5.88;2.45;;;7.80;91.90;;;;;;5000687;28;20092;-73
2024/03/12 09:35:03;;;;;;;4.63;2.65;;;7.80;91.90;;;;;;5075285;28;20036;-72
2024/03/12 09:37:29;;;;;;;5.03;2.50;;;7.80;92.00;;;;;;5042724;28;20427;-72
2024/03/12 09:40:00;;;;;;;4.50;2.40;;;7.80;92.00;;;;;;5081247;28;20043;-72
2024/03/12 09:42:30;;;;;;;4.30;2.13;;;8.00;92.10;;;;;;5100558;28;20043;-72
2024/03/12 09:44:59;;;;;;;6.45;2.60;;;7.90;92.00;;;;;;5054939;28;20048;-72
2024/03/12 09:47:28;;;;;;;6.15;3.03;;;7.90;91.90;;;;;;5038463;28;20040;-72
2024/03/12 09:49:55;;;;;;;5.00;2.35;;;8.00;91.90;;;;;;5038873;28;20050;-72
2024/03/12 09:52:21;;;;;;;6.18;2.83;;;8.00;91.90;;;;;;5038297;28;20136;-72
2024/03/12 09:54:48;;;;;;;5.60;2.67;;;8.00;91.90;;;;;;5055161;28;20543;-71
2024/03/12 09:57:16;;;;;;;4.57;2.50;;;8.00;91.90;;;;;;5054875;28;20036;-72
2024/03/12 09:59:44;;;;;;;7.28;3.40;;;8.00;91.90;;;;;;5050760;28;20048;-72
2024/03/12 10:02:24;;;;;;;5.82;3.03;;;8.00;91.80;;;;;;5015132;28;20509;-71
2024/03/12 10:08:31;;;;;;;6.35;3.35;;;8.00;91.90;;;;;;4994794;28;20053;-72
2024/03/12 10:10:57;;;;;;;7.57;3.25;;;8.00;91.80;;;;;;5016046;28;20045;-72
2024/03/12 10:13:23;;;;;;;5.22;2.95;;;8.10;91.90;;;;;;5014789;28;20034;-72
2024/03/12 10:15:58;;;;;;;5.13;2.80;;;8.10;91.90;;;;;;5014216;28;20054;-72
2024/03/12 10:18:27;;;;;;;5.65;3.13;;;8.10;91.90;;;;;;4998597;28;20041;-73
2024/03/12 10:20:57;;;;;;;5.18;2.47;;;8.20;91.90;;;;;;4981822;28;20196;-73
2024/03/12 10:23:25;;;;;;;5.43;2.90;;;8.20;91.80;;;;;;4975422;28;20080;-73
2024/03/12 10:25:52;;;;;;;6.72;2.97;;;8.40;91.80;;;;;;4992056;28;20054;-72
2024/03/12 10:28:26;;;;;;;6.47;2.90;;;8.50;91.80;;;;;;4991879;28;20042;-72
2024/03/12 10:30:53;;;;;;;5.57;2.60;;;8.40;91.70;;;;;;4991732;28;20042;-72
2024/03/12 10:33:21;;;;;;;7.95;2.97;;;8.60;91.70;;;;;;5014577;28;20040;-72
2024/03/12 10:35:47;;;;;;;5.82;3.00;;;8.60;91.60;;;;;;5030616;28;20041;-72
2024/03/12 10:38:33;;;;;;;6.78;3.30;;;8.60;91.60;;;;;;5053337;28;20041;-72
2024/03/12 10:41:17;;;;;;;6.28;2.85;;;8.60;91.60;;;;;;5055296;28;20592;-71
2024/03/12 10:44:40;;;;;;;5.43;2.80;;;8.60;91.60;;;;;;5030548;28;20038;-72
2024/03/12 10:47:23;;;;;;;6.32;2.70;;;8.70;91.70;;;;;;4972548;28;20517;-71
2024/03/12 10:49:49;;;;;;;4.65;2.45;;;8.60;91.60;;;;;;4974276;28;20105;-71
2024/03/12 10:52:17;;;;;;;5.75;3.10;;;8.70;91.60;;;;;;4971873;28;20197;-71
2024/03/12 10:54:45;;;;;;;5.50;3.05;;;8.70;91.50;;;;;;4990021;28;20128;-72
2024/03/12 10:57:11;;;;;;;5.40;2.55;;;8.80;91.60;;;;;;5014288;28;20083;-72
2024/03/12 10:59:38;;;;;;;6.32;2.78;;;8.70;91.50;;;;;;5030871;28;20061;-72
2024/03/12 11:02:07;;;;;;;5.82;2.80;;;8.80;91.60;;;;;;5014502;28;20102;-72
2024/03/12 11:04:35;;;;;;;6.25;2.85;;;8.80;91.50;;;;;;5014681;28;20115;-72
2024/03/12 11:07:03;;;;;;;5.03;2.55;;;8.80;91.50;;;;;;5030741;28;20100;-72
2024/03/12 11:09:33;;;;;;;6.43;2.97;;;8.80;91.50;;;;;;5014112;28;20053;-72
2024/03/12 11:11:59;;;;;;;5.65;2.90;;;8.90;91.50;;;;;;5035132;28;20047;-71
2024/03/12 11:14:28;;;;;;;6.63;3.20;;;8.90;91.50;;;;;;5060804;28;20035;-72
2024/03/12 11:16:54;;;;;;;6.65;3.10;;;9.00;91.40;;;;;;5098577;28;20039;-71
2024/03/12 11:19:33;;;;;;;7.38;3.63;;;9.00;91.40;;;;;;5133627;27;20047;-71
2024/03/12 11:22:09;;;;;;;7.80;3.67;;;9.00;91.40;;;;;;5115205;28;20043;-71
2024/03/12 11:24:44;;;;;;;5.93;3.17;;;9.10;91.30;;;;;;5116979;28;20553;-71
2024/03/12 11:27:19;;;;;;;6.07;3.20;;;9.00;91.30;;;;;;5115252;28;20043;-71
2024/03/12 11:30:24;;;;;;;5.15;2.90;;;9.20;91.30;;;;;;5115083;28;20039;-71
2024/03/12 11:32:51;;;;;;;4.90;2.65;;;9.20;91.20;;;;;;5085228;27;20043;-72
2024/03/12 11:35:34;;;;;;;5.50;2.78;;;9.20;91.20;;;;;;5115163;27;20130;-72
2024/03/12 11:38:05;;;;;;;5.95;2.60;;;9.20;91.20;;;;;;5097975;27;20039;-72
2024/03/12 11:40:38;;;;;;;5.20;2.58;;;9.30;91.20;;;;;;5098455;28;20039;-72
2024/03/12 11:43:13;;;;;;;6.07;3.22;;;9.20;91.20;;;;;;5095163;28;20093;-72
2024/03/12 11:45:46;;;;;;;5.88;3.05;;;9.20;91.20;;;;;;5080766;28;20038;-73
2024/03/12 11:58:21;;;;;;;3.92;2.05;;;9.10;91.50;;;;;;5052956;28;20056;-73
2024/03/12 12:01:10;;;;;;;6.07;3.05;;;9.20;91.30;;;;;;5005782;28;20077;-72
2024/03/12 12:04:40;;;;;;;6.53;2.90;;;9.20;91.20;;;;;;4977740;28;20084;-73
2024/03/12 12:07:39;;;;;;;5.47;2.85;;;9.30;91.20;;;;;;4855230;29;20050;-72
2024/03/12 12:10:07;;;;;;;6.20;3.00;;;9.40;91.10;;;;;;4839370;29;20053;-72
2024/03/12 12:12:33;;;;;;;7.20;3.35;;;9.60;91.10;;;;;;4839294;29;20038;-73
2024/03/12 12:14:59;;;;;;;7.13;3.33;;;9.80;90.90;;;;;;4839350;29;20095;-72
2024/03/12 12:17:25;;;;;;;7.57;3.55;;;10.00;90.60;;;;;;4844444;29;20489;-72
2024/03/12 12:20:21;;;;;;;6.40;3.67;;;10.10;90.40;;;;;;4860534;29;20052;-72
2024/03/12 12:22:47;;;;;;;6.50;3.65;;;10.00;90.30;;;;;;4857945;29;20101;-72
2024/03/12 12:25:18;;;;;;;6.85;3.78;;;10.00;90.30;;;;;;4862162;29;20052;-72
2024/03/12 12:27:43;;;;;;;7.05;4.25;;;10.00;90.30;;;;;;4875785;29;20056;-72
2024/03/12 12:30:11;;;;;;;7.97;4.22;;;9.80;90.30;;;;;;4871711;29;20053;-72
2024/03/12 12:32:38;;;;;;;8.18;4.55;;;9.90;90.30;;;;;;4900780;29;20051;-72
2024/03/12 12:35:10;;;;;;;8.55;4.55;;;9.90;90.30;;;;;;4928980;29;20523;-72
2024/03/12 12:37:39;;;;;;;7.20;4.47;;;9.90;90.30;;;;;;4963673;28;20062;-73
2024/03/12 12:40:09;;;;;;;7.18;3.72;;;9.90;90.30;;;;;;4977988;28;20108;-73
2024/03/12 12:42:50;;;;;;;7.78;4.20;;;10.00;90.30;;;;;;4974236;28;20042;-73
2024/03/12 12:51:29;;;;;;;6.43;3.42;;;10.10;90.10;;;;;;5055541;28;20041;-72
2024/03/12 12:54:03;;;;;;;7.20;3.40;;;10.10;90.10;;;;;;5069280;27;20039;-72
2024/03/12 12:56:31;;;;;;;7.40;3.53;;;10.10;90.10;;;;;;5076809;28;20491;-73
2024/03/12 12:59:12;;;;;;;5.45;3.38;;;10.00;90.10;;;;;;5097209;28;20036;-73
2024/03/12 13:01:40;;;;;;;6.28;3.03;;;10.00;90.20;;;;;;5134619;27;20044;-72
2024/03/12 13:04:23;;;;;;;6.93;3.97;;;10.00;90.20;;;;;;5118115;27;20126;-73
2024/03/12 13:06:53;;;;;;;6.85;3.45;;;10.10;90.20;;;;;;5116508;28;20114;-73
2024/03/12 13:09:33;;;;;;;7.37;4.00;;;10.20;90.20;;;;;;5117117;28;20077;-73
2024/03/12 13:16:00;;;;;;;9.07;4.80;;;10.10;90.00;;;;;;5051419;28;20041;-73
2024/03/12 13:19:28;;;;;;;7.07;4.07;;;10.10;90.00;;;;;;4991070;28;20556;-75
2024/03/12 13:22:34;;;;;;;8.05;4.68;;;10.10;90.00;;;;;;4894500;29;20164;-72
2024/03/12 13:24:51;;;;;;;7.68;4.53;;;10.20;90.00;;;;;;4875877;29;20090;-76
2024/03/12 14:25:42;;;;;;;6.82;3.53;;;10.80;88.30;;;;;;4690517;30;20100;-74
2024/03/12 14:28:19;;;;;;;7.35;4.13;;;10.70;88.30;;;;;;4696744;30;20054;-74
2024/03/12 14:30:45;;;;;;;7.43;4.35;;;10.80;88.30;;;;;;4698204;30;20050;-74
2024/03/12 14:33:11;;;;;;;8.73;4.20;;;10.80;88.30;;;;;;4698620;30;20080;-74
2024/03/12 14:35:37;;;;;;;8.80;4.72;;;10.90;88.30;;;;;;4698092;30;20049;-74
2024/03/12 14:38:03;;;;;;;7.13;3.95;;;10.80;88.20;;;;;;4696363;30;20144;-74
2024/03/12 14:40:29;;;;;;;9.13;4.93;;;10.80;88.20;;;;;;4698038;30;20521;-75
2024/03/12 14:42:57;;;;;;;5.57;3.10;;;10.80;88.20;;;;;;4683508;30;20049;-74
2024/03/12 14:45:27;;;;;;;6.72;3.65;;;10.90;88.20;;;;;;4711969;30;20056;-76
2024/03/12 14:48:23;;;;;;;6.43;3.55;;;10.90;88.20;;;;;;4697366;30;20136;-76
2024/03/12 14:54:16;;;;;;;7.05;3.70;;;10.80;88.20;;;;;;4633452;30;20057;-75
2024/03/12 14:57:22;;;;;;;6.13;3.50;;;10.90;88.20;;;;;;4648644;30;20057;-75
2024/03/12 15:00:28;;;;;;;8.02;3.80;;;10.90;88.20;;;;;;4674913;30;20136;-75
2024/03/12 15:02:55;;;;;;;5.80;3.08;;;10.90;88.10;;;;;;4784792;29;20079;-75